Hesperia, CA (92340)

10:34 AM PDT on July 30, 2016 (GMT -0700)
APRSWXNET | | Change Station

Elev 3050 ft 34.42 °N, 117.27 °W | Updated 37 minutes ago

Haze
Haze
92 °F
Feels Like 91 °F
N
10
Wind Variable Wind from WSW
Gusts 0.0 mph

Today
High -- | Low -- °F
--% Chance of Precip.
Yesterday
High -- | Low -- °F
Precip. -- in
Pressure 29.95 in
Visibility 2.5 miles
Clouds Scattered Clouds 9000 ft
Scattered Clouds 11000 ft
Heat Index 91 °F
Dew Point 59 °F
Humidity 33%
Rainfall in
Snow Depth Not available.
5:58 AM 7:51 PM
Waning Crescent, 12% visible
METAR KVCV 301715Z AUTO 18012KT 2 1/2SM HZ SCT090 SCT110 35/11 A2995 RMK AO2
Pressure 29.95 in
Visibility 2.5 miles
Clouds Scattered Clouds 9000 ft
Scattered Clouds 11000 ft
Heat Index 91 °F
Dew Point 59 °F
Humidity 33%
Rainfall in
Snow Depth Not available.
5:58 AM 7:51 PM
Waning Crescent, 12% visible
METAR KVCV 301715Z AUTO 18012KT 2 1/2SM HZ SCT090 SCT110 35/11 A2995 RMK AO2

10-Day Weather Forecast

Almanac

Astronomy

Jul. 30, 2016 Rise Set
Actual Time
Civil Twilight
Nautical Twilight
Astronomical Twilight
Moon
Length of Visible Light
Length of Day
Tomorrow will be .
, % of the Moon is Illuminated

Today's Extremes

State Highs State Lows

Community

WunderPhotos

Upload Photos

1,928,600 photos uploaded!

WunderBlog® & News

Nearby

Air Quality

  Air Quality AQ Index Pollutant
Not available.

Snow Depth

Station Depth Elevation

Earthquake Activity

City Distance Mag. Time & Date
Minimum magnitude displayed is 2.5.

Coastal Water Temperatures

Place Temperature

Stations

Nearby Weather Stations

Station Location Temp. Windchill Dew Point Humidity Wind Precip. Elev Updated Type
                   

Watches & Warnings

There are currently no watches in effect.